createdAt,value
2022-11-28T00:01:24.754Z,15.20
2022-11-28T00:03:51.728Z,14.88
2022-11-28T00:06:18.570Z,14.95
2022-11-28T00:08:45.321Z,14.43
2022-11-28T00:11:13.801Z,15.45
2022-11-28T00:13:41.272Z,14.73
2022-11-28T00:16:09.776Z,15.30
2022-11-28T00:18:36.379Z,16.33
2022-11-28T00:21:09.302Z,15.35
2022-11-28T00:23:36.663Z,14.93
2022-11-28T00:26:07.875Z,14.65
2022-11-28T00:28:34.433Z,15.60
2022-11-28T00:31:01.061Z,15.43
2022-11-28T00:33:27.972Z,15.65
2022-11-28T00:36:02.924Z,15.77
2022-11-28T00:38:29.898Z,16.13
2022-11-28T00:41:07.080Z,16.20
2022-11-28T00:43:34.394Z,16.00
2022-11-28T00:46:00.892Z,15.15
2022-11-28T00:48:27.453Z,15.60
2022-11-28T00:50:54.944Z,15.90
2022-11-28T00:53:21.793Z,14.98
2022-11-28T00:55:48.191Z,16.25
2022-11-28T00:58:14.622Z,15.30
2022-11-28T01:00:41.174Z,15.43
2022-11-28T01:03:07.740Z,15.27
2022-11-28T01:05:40.459Z,13.90
2022-11-28T01:08:06.912Z,15.63
2022-11-28T01:10:33.432Z,16.25
2022-11-28T01:12:59.850Z,16.77
2022-11-28T01:15:26.359Z,17.10
2022-11-28T01:17:52.797Z,17.55
2022-11-28T01:20:19.289Z,17.45
2022-11-28T01:22:45.908Z,15.98
2022-11-28T01:25:12.325Z,18.73
2022-11-28T01:27:38.775Z,17.23
2022-11-28T01:30:06.138Z,18.15
2022-11-28T01:32:32.535Z,18.10
2022-11-28T01:34:58.988Z,18.33
2022-11-28T01:37:25.459Z,17.75
2022-11-28T01:39:51.886Z,18.42
2022-11-28T01:42:20.140Z,19.30
2022-11-28T01:44:49.574Z,17.15
2022-11-28T01:47:21.092Z,18.85
2022-11-28T01:52:17.262Z,18.52
2022-11-28T01:54:48.819Z,18.55
2022-11-28T01:59:51.228Z,18.05
2022-11-28T02:02:30.064Z,18.33
2022-11-28T02:04:56.703Z,19.02
2022-11-28T02:07:23.646Z,19.63
2022-11-28T02:09:50.105Z,18.33
2022-11-28T02:12:59.896Z,18.77
2022-11-28T02:16:05.482Z,18.60
2022-11-28T02:19:08.449Z,17.90
2022-11-28T02:22:02.683Z,19.13
2022-11-28T02:24:41.275Z,17.65
2022-11-28T02:27:25.379Z,18.60
2022-11-28T02:30:14.760Z,16.75
2022-11-28T02:32:52.773Z,17.73
2022-11-28T02:35:54.832Z,17.35
2022-11-28T02:38:47.252Z,17.35
2022-11-28T02:41:28.656Z,16.83
2022-11-28T02:44:04.437Z,16.63
2022-11-28T02:46:52.912Z,15.68
2022-11-28T02:49:54.438Z,16.67
2022-11-28T02:52:31.733Z,16.52
2022-11-28T02:54:59.705Z,17.30
2022-11-28T02:57:37.984Z,17.23
2022-11-28T03:00:32.426Z,17.30
2022-11-28T03:03:01.625Z,16.35
2022-11-28T03:05:55.816Z,16.05
2022-11-28T03:08:28.087Z,16.70
2022-11-28T03:11:18.311Z,16.10
2022-11-28T03:14:05.525Z,16.02
2022-11-28T03:16:48.991Z,15.15
2022-11-28T03:19:32.946Z,16.25
2022-11-28T03:22:28.574Z,15.88
2022-11-28T03:25:03.285Z,15.13
2022-11-28T03:27:42.301Z,16.30
2022-11-28T03:30:17.014Z,16.27
2022-11-28T03:32:46.076Z,15.57
2022-11-28T03:35:17.160Z,15.13
2022-11-28T03:37:54.179Z,16.30
2022-11-28T03:40:33.484Z,16.00
2022-11-28T03:43:09.705Z,16.30
2022-11-28T03:45:40.744Z,16.52
2022-11-28T03:48:15.749Z,11.68
2022-11-28T03:50:46.962Z,16.20
2022-11-28T03:53:20.861Z,16.98
2022-11-28T03:56:08.150Z,16.58
2022-11-28T03:58:39.941Z,17.63
2022-11-28T04:01:23.617Z,17.13
2022-11-28T04:03:55.890Z,16.42
2022-11-28T04:06:33.578Z,18.63
2022-11-28T04:09:14.191Z,17.50
2022-11-28T04:11:56.421Z,12.75
2022-11-28T04:14:34.232Z,16.80
2022-11-28T04:17:14.200Z,16.13
2022-11-28T04:19:49.837Z,16.50
2022-11-28T04:22:30.944Z,17.67
2022-11-28T04:25:12.661Z,17.02
2022-11-28T04:30:09.861Z,17.05
2022-11-28T04:32:40.301Z,18.88
2022-11-28T04:35:12.763Z,16.05
2022-11-28T04:37:42.101Z,18.30
2022-11-28T04:40:12.343Z,18.17
2022-11-28T04:42:53.128Z,17.48
2022-11-28T04:45:26.516Z,18.67
2022-11-28T04:47:53.270Z,18.77
2022-11-28T04:50:22.128Z,18.75
2022-11-28T04:53:14.431Z,19.27
2022-11-28T04:55:47.393Z,18.08
2022-11-28T04:58:30.915Z,18.35
2022-11-28T05:00:58.842Z,17.80
2022-11-28T05:03:29.405Z,19.52
2022-11-28T05:05:55.923Z,16.92
2022-11-28T05:08:22.467Z,18.83
2022-11-28T05:10:49.018Z,18.02
2022-11-28T05:13:15.618Z,17.58
2022-11-28T05:15:42.074Z,18.45
2022-11-28T05:18:09.273Z,17.77
2022-11-28T05:20:37.532Z,17.90
2022-11-28T05:23:04.293Z,18.42
2022-11-28T05:25:30.719Z,16.98
2022-11-28T05:27:57.341Z,17.60
2022-11-28T05:30:23.741Z,18.00
2022-11-28T05:32:50.193Z,18.35
2022-11-28T05:35:16.774Z,16.65
2022-11-28T05:37:43.221Z,17.92
2022-11-28T05:40:09.867Z,17.77
2022-11-28T05:42:36.783Z,17.20
2022-11-28T05:45:05.187Z,17.55
2022-11-28T05:47:33.319Z,17.02
2022-11-28T05:49:59.884Z,16.83
2022-11-28T05:52:29.658Z,17.25
2022-11-28T05:54:56.191Z,17.13
2022-11-28T05:57:22.658Z,17.65
2022-11-28T05:59:49.099Z,17.80
2022-11-28T06:02:15.645Z,17.60
2022-11-28T06:04:42.263Z,18.45
2022-11-28T06:07:08.895Z,17.65
2022-11-28T06:09:35.373Z,17.30
2022-11-28T06:12:02.005Z,19.00
2022-11-28T06:14:28.597Z,17.60
2022-11-28T06:16:55.083Z,17.92
2022-11-28T06:19:21.572Z,17.88
2022-11-28T06:21:50.349Z,18.23
2022-11-28T06:24:16.818Z,18.67
2022-11-28T06:26:43.384Z,18.13
2022-11-28T06:29:09.958Z,18.13
2022-11-28T06:31:36.571Z,18.55
2022-11-28T06:34:03.128Z,18.52
2022-11-28T06:36:30.656Z,18.05
2022-11-28T06:38:57.502Z,17.95
2022-11-28T06:41:23.971Z,17.83
2022-11-28T06:43:50.693Z,17.63
2022-11-28T06:46:20.354Z,17.08
2022-11-28T06:48:48.255Z,16.55
2022-11-28T06:51:15.680Z,16.83
2022-11-28T06:53:42.714Z,17.75
2022-11-28T06:56:14.240Z,18.30
2022-11-28T07:01:13.987Z,18.60
2022-11-28T07:03:41.646Z,18.23
2022-11-28T07:06:12.546Z,19.02
2022-11-28T07:08:39.622Z,19.90
2022-11-28T07:11:16.035Z,19.67
2022-11-28T07:13:45.858Z,19.52
2022-11-28T07:16:31.666Z,18.83
2022-11-28T07:18:59.631Z,19.58
2022-11-28T07:21:27.194Z,20.65
2022-11-28T07:23:54.117Z,19.30
2022-11-28T07:26:22.078Z,20.52
2022-11-28T07:28:51.184Z,20.23
2022-11-28T07:31:21.045Z,20.50
2022-11-28T07:33:53.029Z,20.58
2022-11-28T07:36:22.872Z,20.33
2022-11-28T07:38:51.533Z,20.38
2022-11-28T07:41:22.504Z,19.63
2022-11-28T07:43:55.150Z,20.60
2022-11-28T07:46:22.056Z,19.38
2022-11-28T07:48:49.489Z,21.13
2022-11-28T07:51:22.477Z,20.95
2022-11-28T07:53:57.950Z,20.17
2022-11-28T07:56:39.466Z,21.83
2022-11-28T07:59:14.666Z,20.13
2022-11-28T08:01:41.282Z,21.13
2022-11-28T08:04:09.719Z,22.88
2022-11-28T08:06:41.744Z,20.63
2022-11-28T08:09:14.073Z,21.45
2022-11-28T08:11:52.680Z,21.92
2022-11-28T08:14:20.530Z,21.77
2022-11-28T08:16:47.441Z,22.10
2022-11-28T08:19:14.666Z,22.98
2022-11-28T08:21:41.834Z,21.85
2022-11-28T08:24:09.135Z,22.80
2022-11-28T08:26:36.732Z,22.35
2022-11-28T08:29:04.150Z,22.25
2022-11-28T08:31:34.188Z,22.85
2022-11-28T08:34:04.107Z,22.63
2022-11-28T08:36:31.002Z,22.17
2022-11-28T08:39:23.953Z,22.65
2022-11-28T08:41:49.968Z,20.95
2022-11-28T08:44:16.924Z,22.52
2022-11-28T08:46:43.717Z,21.90
2022-11-28T08:49:10.419Z,23.02
2022-11-28T08:51:37.323Z,21.75
2022-11-28T08:54:06.428Z,21.10
2022-11-28T08:56:34.606Z,21.95
2022-11-28T08:59:11.045Z,21.48
2022-11-28T09:01:37.788Z,22.77
2022-11-28T09:04:05.018Z,20.40
2022-11-28T09:06:31.824Z,21.60
2022-11-28T09:08:58.924Z,21.13
2022-11-28T09:11:28.801Z,22.70
2022-11-28T09:13:55.904Z,21.70
2022-11-28T09:16:22.714Z,22.48
2022-11-28T09:18:49.579Z,22.38
2022-11-28T09:21:16.566Z,20.52
2022-11-28T09:23:44.809Z,22.00
2022-11-28T09:26:17.949Z,21.35
2022-11-28T09:28:45.314Z,22.15
2022-11-28T09:31:16.569Z,22.95
2022-11-28T09:33:43.760Z,21.65
2022-11-28T09:36:13.112Z,21.13
2022-11-28T09:38:39.990Z,22.42
2022-11-28T09:41:31.985Z,21.83
2022-11-28T09:44:03.280Z,21.17
2022-11-28T09:46:34.297Z,22.02
2022-11-28T09:49:04.842Z,22.98
2022-11-28T09:51:43.337Z,23.55
2022-11-28T09:54:33.960Z,21.40
2022-11-28T09:57:12.920Z,21.02
2022-11-28T09:59:41.098Z,21.55
2022-11-28T10:02:14.134Z,20.85
2022-11-28T10:04:59.166Z,23.95
2022-11-28T10:07:56.969Z,22.73
2022-11-28T10:10:40.503Z,23.40
2022-11-28T10:13:41.207Z,22.63
2022-11-28T10:16:30.382Z,21.65
2022-11-28T10:19:06.055Z,22.33
2022-11-28T10:22:21.604Z,24.77
2022-11-28T10:24:54.535Z,22.05
2022-11-28T10:27:38.114Z,23.02
2022-11-28T10:30:19.652Z,24.48
2022-11-28T10:32:57.515Z,23.88
2022-11-28T10:35:29.669Z,22.85
2022-11-28T10:37:56.633Z,24.50
2022-11-28T10:41:23.841Z,22.58
2022-11-28T10:44:19.970Z,22.23
2022-11-28T10:47:12.070Z,23.27
2022-11-28T10:49:54.281Z,23.17
2022-11-28T10:52:31.454Z,22.77
2022-11-28T10:55:11.738Z,24.02
2022-11-28T10:58:03.703Z,22.70
2022-11-28T11:00:31.029Z,23.15
2022-11-28T11:03:02.429Z,22.60
2022-11-28T11:05:37.092Z,22.77
2022-11-28T11:08:25.250Z,22.80
2022-11-28T11:11:23.777Z,25.05
2022-11-28T11:13:56.448Z,21.98
2022-11-28T11:16:23.787Z,22.98
2022-11-28T11:18:54.779Z,22.98
2022-11-28T11:21:24.562Z,15.75
2022-11-28T11:24:11.504Z,24.02
2022-11-28T11:26:40.970Z,23.02
2022-11-28T11:29:21.948Z,21.83
2022-11-28T11:31:53.491Z,21.90
2022-11-28T11:34:23.987Z,22.10
2022-11-28T11:36:51.670Z,23.65
2022-11-28T11:39:25.489Z,21.92
2022-11-28T11:42:11.931Z,21.95
2022-11-28T11:44:38.644Z,21.98
2022-11-28T11:47:08.923Z,22.40
2022-11-28T11:49:44.780Z,21.42
2022-11-28T11:52:12.737Z,20.88
2022-11-28T11:54:52.360Z,19.75
2022-11-28T11:57:33.537Z,21.35
2022-11-28T12:00:27.027Z,21.77
2022-11-28T12:02:58.476Z,20.30
2022-11-28T12:05:41.808Z,21.83
2022-11-28T12:08:40.750Z,21.65
2022-11-28T12:11:23.402Z,20.13
2022-11-28T12:13:51.558Z,21.13
2022-11-28T12:16:21.652Z,20.67
2022-11-28T12:18:57.925Z,20.67
2022-11-28T12:21:33.675Z,19.35
2022-11-28T12:24:14.339Z,20.05
2022-11-28T12:26:59.023Z,20.35
2022-11-28T12:29:40.558Z,20.15
2022-11-28T12:32:27.323Z,19.30
2022-11-28T12:35:14.147Z,19.02
2022-11-28T12:38:13.828Z,20.08
2022-11-28T12:40:55.260Z,18.13
2022-11-28T12:43:43.421Z,19.02
2022-11-28T12:46:19.357Z,17.67
2022-11-28T12:48:53.548Z,19.30
2022-11-28T12:51:26.453Z,18.08
2022-11-28T12:54:12.846Z,18.90
2022-11-28T12:56:58.220Z,17.83
2022-11-28T12:59:31.934Z,17.70
2022-11-28T13:02:12.458Z,18.35
2022-11-28T13:05:05.582Z,17.38
2022-11-28T13:07:54.630Z,18.42
2022-11-28T13:10:29.244Z,17.88
2022-11-28T13:13:20.124Z,18.17
2022-11-28T13:16:08.096Z,17.77
2022-11-28T13:18:40.843Z,17.58
2022-11-28T13:21:38.778Z,18.08
2022-11-28T13:24:11.711Z,19.50
2022-11-28T13:26:47.617Z,19.42
2022-11-28T13:29:20.010Z,19.10
2022-11-28T13:31:51.442Z,20.95
2022-11-28T13:34:20.924Z,20.10
2022-11-28T13:39:50.734Z,20.00
2022-11-28T13:45:32.952Z,19.30
2022-11-28T13:48:01.092Z,21.05
2022-11-28T13:50:36.787Z,19.83
2022-11-28T13:53:06.311Z,19.88
2022-11-28T13:55:50.279Z,21.58
2022-11-28T13:58:25.709Z,21.75
2022-11-28T14:01:13.108Z,21.25
2022-11-28T14:03:58.852Z,21.52
2022-11-28T14:06:28.526Z,21.27
2022-11-28T14:09:16.135Z,22.20
2022-11-28T14:12:18.904Z,22.63
2022-11-28T14:15:10.131Z,22.25
2022-11-28T14:18:55.219Z,23.77
2022-11-28T14:21:31.346Z,22.02
2022-11-28T14:24:20.157Z,22.05
2022-11-28T14:26:47.581Z,23.30
2022-11-28T14:29:21.682Z,23.50
2022-11-28T14:32:07.018Z,22.95
2022-11-28T14:34:46.036Z,21.65
2022-11-28T14:37:21.978Z,25.13
2022-11-28T14:39:50.279Z,24.08
2022-11-28T14:42:36.956Z,25.30
2022-11-28T14:45:38.573Z,24.55
2022-11-28T14:48:22.733Z,23.98
2022-11-28T14:50:59.279Z,24.05
2022-11-28T14:53:37.166Z,26.83
2022-11-28T14:56:23.343Z,25.85
2022-11-28T14:58:52.275Z,25.90
2022-11-28T15:01:37.110Z,26.40
2022-11-28T15:04:41.707Z,26.10
2022-11-28T15:07:18.384Z,26.90
2022-11-28T15:10:07.746Z,27.48
2022-11-28T15:12:45.558Z,29.20
2022-11-28T15:15:14.481Z,28.80
2022-11-28T15:17:47.084Z,27.50
2022-11-28T15:20:29.905Z,29.02
2022-11-28T15:22:59.701Z,28.75
2022-11-28T15:25:39.763Z,30.15
2022-11-28T15:28:14.518Z,30.17
2022-11-28T15:30:51.361Z,30.98
2022-11-28T15:33:20.460Z,28.67
2022-11-28T15:35:57.429Z,30.35
2022-11-28T15:38:25.910Z,30.58
2022-11-28T15:40:56.646Z,31.05
2022-11-28T15:43:25.011Z,31.53
2022-11-28T15:46:00.331Z,29.77
2022-11-28T15:48:40.027Z,30.63
2022-11-28T15:51:07.501Z,29.85
2022-11-28T15:53:40.668Z,29.65
2022-11-28T15:56:13.850Z,29.23
2022-11-28T15:58:42.232Z,30.23
2022-11-28T16:01:12.102Z,28.83
2022-11-28T16:03:47.773Z,30.75
2022-11-28T16:06:15.012Z,31.13
2022-11-28T16:08:53.141Z,29.30
2022-11-28T16:11:21.697Z,30.33
2022-11-28T16:13:49.312Z,30.02
2022-11-28T16:16:21.565Z,29.92
2022-11-28T16:19:01.977Z,30.27
2022-11-28T16:21:31.831Z,29.33
2022-11-28T16:24:03.612Z,28.80
2022-11-28T16:26:31.950Z,29.90
2022-11-28T16:29:05.653Z,29.42
2022-11-28T16:31:33.019Z,28.45
2022-11-28T16:34:00.687Z,30.60
2022-11-28T16:36:33.029Z,29.13
2022-11-28T16:39:11.749Z,30.52
2022-11-28T16:41:43.036Z,31.48
2022-11-28T16:44:14.942Z,30.20
2022-11-28T16:47:00.802Z,32.10
2022-11-28T16:49:35.524Z,31.65
2022-11-28T16:52:22.044Z,32.83
2022-11-28T16:54:55.939Z,31.77
2022-11-28T16:57:26.425Z,32.50
2022-11-28T16:59:55.430Z,31.15
2022-11-28T17:02:24.533Z,33.55
2022-11-28T17:05:08.943Z,33.17
2022-11-28T17:07:35.627Z,33.13
2022-11-28T17:10:02.383Z,34.58
2022-11-28T17:12:37.416Z,33.65
2022-11-28T17:15:04.443Z,34.05
2022-11-28T17:17:31.867Z,36.25
2022-11-28T17:20:09.648Z,34.45
2022-11-28T17:22:56.568Z,35.45
2022-11-28T17:25:26.624Z,34.85
2022-11-28T17:27:53.113Z,35.50
2022-11-28T17:30:29.133Z,36.53
2022-11-28T17:32:55.661Z,36.88
2022-11-28T17:35:27.864Z,36.63
2022-11-28T17:37:54.888Z,37.30
2022-11-28T17:40:33.612Z,36.28
2022-11-28T17:43:03.418Z,38.10
2022-11-28T17:45:33.868Z,37.15
2022-11-28T17:48:00.621Z,37.60
2022-11-28T17:50:27.263Z,35.42
2022-11-28T17:52:53.907Z,39.83
2022-11-28T17:55:20.729Z,38.67
2022-11-28T17:57:47.416Z,38.47
2022-11-28T18:00:15.218Z,37.15
2022-11-28T18:02:42.154Z,37.35
2022-11-28T18:05:09.354Z,38.35
2022-11-28T18:07:35.783Z,39.03
2022-11-28T18:10:02.538Z,40.05
2022-11-28T18:12:29.108Z,40.80
2022-11-28T18:14:55.807Z,38.17
2022-11-28T18:17:25.319Z,40.13
2022-11-28T18:19:57.160Z,41.42
2022-11-28T18:22:24.026Z,40.92
2022-11-28T18:24:50.565Z,42.72
2022-11-28T18:27:17.520Z,40.92
2022-11-28T18:29:44.327Z,41.33
2022-11-28T18:32:11.160Z,41.22
2022-11-28T18:34:37.810Z,43.53
2022-11-28T18:37:05.299Z,41.60
2022-11-28T18:39:33.099Z,45.60
2022-11-28T18:42:00.238Z,42.00
2022-11-28T18:44:26.745Z,42.50
2022-11-28T18:46:53.479Z,44.38
2022-11-28T18:49:20.460Z,43.53
2022-11-28T18:51:47.533Z,40.70
2022-11-28T18:54:20.549Z,45.10
2022-11-28T18:56:48.086Z,42.92
2022-11-28T18:59:14.668Z,44.08
2022-11-28T19:01:41.305Z,46.47
2022-11-28T19:04:11.042Z,45.63
2022-11-28T19:06:39.419Z,50.00
2022-11-28T19:09:09.353Z,43.92
2022-11-28T19:11:36.188Z,47.03
2022-11-28T19:14:02.673Z,48.08
2022-11-28T19:16:31.570Z,46.47
2022-11-28T19:18:58.934Z,45.20
2022-11-28T19:21:27.860Z,44.35
2022-11-28T19:23:55.911Z,44.85
2022-11-28T19:26:24.964Z,44.58
2022-11-28T19:28:51.958Z,44.97
2022-11-28T19:31:23.998Z,43.70
2022-11-28T19:34:00.578Z,45.03
2022-11-28T19:36:29.981Z,44.30
2022-11-28T19:38:56.403Z,45.33
2022-11-28T19:41:23.113Z,44.67
2022-11-28T19:43:50.402Z,43.28
2022-11-28T19:46:17.466Z,47.63
2022-11-28T19:48:44.187Z,45.10
2022-11-28T19:51:12.339Z,44.10
2022-11-28T19:53:41.669Z,43.13
2022-11-28T19:56:17.790Z,43.60
2022-11-28T19:58:45.030Z,43.15
2022-11-28T20:01:14.944Z,43.55
2022-11-28T20:03:42.559Z,41.65
2022-11-28T20:06:09.961Z,43.22
2022-11-28T20:08:36.826Z,43.47
2022-11-28T20:11:18.756Z,41.78
2022-11-28T20:13:46.317Z,43.03
2022-11-28T20:16:15.252Z,41.58
2022-11-28T20:18:43.200Z,44.08
2022-11-28T20:21:18.191Z,42.47
2022-11-28T20:23:53.970Z,42.63
2022-11-28T20:26:23.698Z,40.65
2022-11-28T20:28:50.427Z,42.40
2022-11-28T20:31:21.468Z,43.10
2022-11-28T20:33:49.024Z,41.22
2022-11-28T20:36:18.089Z,42.88
2022-11-28T20:38:44.978Z,40.63
2022-11-28T20:41:13.611Z,40.45
2022-11-28T20:43:41.290Z,40.97
2022-11-28T20:46:13.426Z,42.15
2022-11-28T20:48:40.108Z,43.30
2022-11-28T20:51:21.049Z,43.33
2022-11-28T20:53:48.592Z,30.20
2022-11-28T20:56:18.043Z,40.63
2022-11-28T20:58:44.924Z,41.63
2022-11-28T21:01:23.696Z,40.85
2022-11-28T21:03:51.102Z,39.65
2022-11-28T21:06:18.117Z,41.95
2022-11-28T21:08:44.659Z,42.40
2022-11-28T21:11:36.560Z,41.72
2022-11-28T21:14:04.885Z,41.03
2022-11-28T21:16:33.131Z,40.65
2022-11-28T21:19:04.315Z,40.50
2022-11-28T21:21:32.543Z,39.92
2022-11-28T21:24:02.635Z,40.20
2022-11-28T21:26:30.691Z,40.80
2022-11-28T21:29:01.715Z,41.53
2022-11-28T21:31:31.851Z,41.90
2022-11-28T21:33:59.175Z,40.65
2022-11-28T21:36:27.491Z,42.13
2022-11-28T21:38:56.636Z,41.40
2022-11-28T21:41:26.415Z,40.75
2022-11-28T21:43:54.164Z,42.38
2022-11-28T21:46:21.084Z,40.80
2022-11-28T21:48:47.706Z,40.67
2022-11-28T21:51:23.599Z,40.95
2022-11-28T21:53:50.831Z,41.42
2022-11-28T21:56:17.950Z,39.38
2022-11-28T21:58:44.398Z,40.10
2022-11-28T22:01:13.131Z,39.83
2022-11-28T22:03:41.060Z,41.58
2022-11-28T22:06:22.412Z,40.63
2022-11-28T22:08:49.321Z,40.60
2022-11-28T22:11:16.179Z,40.83
2022-11-28T22:13:45.150Z,39.70
2022-11-28T22:16:16.699Z,39.88
2022-11-28T22:21:49.948Z,40.00
2022-11-28T22:24:02.723Z,38.83
2022-11-28T22:26:29.223Z,40.28
2022-11-28T22:28:55.655Z,39.58
2022-11-28T22:31:22.610Z,40.28
2022-11-28T22:33:50.378Z,39.40
2022-11-28T22:36:18.961Z,38.40
2022-11-28T22:38:46.725Z,37.55
2022-11-28T22:41:23.295Z,39.10
2022-11-28T22:43:55.624Z,37.40
2022-11-28T22:46:22.846Z,38.67
2022-11-28T22:48:49.355Z,39.03
2022-11-28T22:51:20.007Z,39.78
2022-11-28T22:53:46.604Z,29.63
2022-11-28T22:56:15.476Z,37.70
2022-11-28T22:58:44.227Z,37.10
2022-11-28T23:01:13.172Z,38.83
2022-11-28T23:03:39.879Z,38.38
2022-11-28T23:06:08.713Z,38.47
2022-11-28T23:08:35.920Z,38.67
2022-11-28T23:11:11.272Z,38.47
2022-11-28T23:13:40.195Z,37.88
2022-11-28T23:16:09.518Z,37.92
2022-11-28T23:18:35.938Z,37.35
2022-11-28T23:21:02.405Z,36.65
2022-11-28T23:23:31.726Z,39.08
2022-11-28T23:26:05.071Z,36.97
2022-11-28T23:28:32.626Z,37.58
2022-11-28T23:31:07.369Z,37.65
2022-11-28T23:33:33.912Z,37.28
2022-11-28T23:36:00.435Z,38.45
2022-11-28T23:38:27.007Z,36.58
2022-11-28T23:40:57.082Z,38.70
2022-11-28T23:43:23.542Z,38.85
2022-11-28T23:45:50.163Z,37.97
2022-11-28T23:48:16.708Z,36.65
2022-11-28T23:50:43.262Z,38.28
2022-11-28T23:53:09.710Z,34.50
2022-11-28T23:55:36.110Z,37.38
2022-11-28T23:58:02.648Z,36.95
